createdAt,value
2017-11-25T00:01:42.110Z,99.90
2017-11-25T00:04:09.710Z,99.90
2017-11-25T00:06:38.142Z,99.90
2017-11-25T00:09:06.507Z,99.90
2017-11-25T00:11:34.109Z,99.90
2017-11-25T00:14:02.564Z,99.90
2017-11-25T00:16:30.164Z,99.90
2017-11-25T00:18:58.532Z,99.90
2017-11-25T00:21:26.182Z,99.90
2017-11-25T00:23:53.806Z,99.90
2017-11-25T00:26:21.418Z,99.90
2017-11-25T00:28:49.046Z,99.90
2017-11-25T00:31:16.630Z,99.90
2017-11-25T00:33:44.314Z,99.90
2017-11-25T00:36:12.048Z,99.90
2017-11-25T00:38:39.690Z,99.90
2017-11-25T00:41:07.281Z,99.90
2017-11-25T00:43:35.000Z,99.90
2017-11-25T00:46:02.610Z,99.90
2017-11-25T00:48:30.197Z,99.90
2017-11-25T00:50:58.103Z,99.90
2017-11-25T00:53:25.962Z,99.90
2017-11-25T00:55:53.554Z,99.90
2017-11-25T00:58:21.252Z,99.90
2017-11-25T01:00:49.639Z,99.90
2017-11-25T01:03:17.279Z,99.90
2017-11-25T01:05:44.917Z,99.90
2017-11-25T01:08:12.508Z,99.90
2017-11-25T01:10:40.931Z,99.90
2017-11-25T01:13:08.604Z,99.90
2017-11-25T01:15:36.270Z,99.90
2017-11-25T01:18:04.011Z,99.90
2017-11-25T01:20:31.619Z,99.90
2017-11-25T01:22:59.242Z,99.90
2017-11-25T01:25:26.932Z,99.90
2017-11-25T01:27:54.599Z,99.90
2017-11-25T01:30:22.265Z,99.90
2017-11-25T01:32:49.902Z,99.90
2017-11-25T01:35:17.561Z,99.90
2017-11-25T01:37:45.224Z,99.90
2017-11-25T01:40:12.836Z,99.90
2017-11-25T01:42:41.252Z,99.90
2017-11-25T01:45:09.662Z,99.90
2017-11-25T01:47:38.355Z,99.90
2017-11-25T01:50:06.012Z,99.90
2017-11-25T01:52:33.673Z,99.90
2017-11-25T01:55:01.394Z,99.90
2017-11-25T01:57:29.080Z,99.90
2017-11-25T01:59:56.761Z,99.90
2017-11-25T02:02:24.460Z,99.90
2017-11-25T02:04:52.889Z,99.90
2017-11-25T02:07:21.411Z,99.90
2017-11-25T02:09:49.831Z,99.90
2017-11-25T02:12:17.529Z,99.90
2017-11-25T02:14:45.259Z,99.90
2017-11-25T02:17:12.920Z,99.90
2017-11-25T02:19:40.589Z,99.90
2017-11-25T02:22:08.302Z,99.90
2017-11-25T02:24:36.980Z,99.90
2017-11-25T02:27:05.453Z,99.90
2017-11-25T02:29:33.095Z,99.90
2017-11-25T02:32:00.743Z,99.90
2017-11-25T02:34:28.465Z,99.90
2017-11-25T02:36:56.261Z,99.90
2017-11-25T02:39:23.990Z,99.90
2017-11-25T02:41:52.834Z,99.90
2017-11-25T02:44:20.485Z,99.90
2017-11-25T02:46:48.289Z,99.90
2017-11-25T02:49:15.976Z,99.90
2017-11-25T02:51:44.414Z,99.90
2017-11-25T02:54:14.958Z,99.90
2017-11-25T02:56:42.629Z,99.90
2017-11-25T02:59:10.328Z,99.90
2017-11-25T03:01:37.971Z,99.90
2017-11-25T03:04:05.637Z,99.90
2017-11-25T03:06:34.573Z,99.90
2017-11-25T03:09:02.270Z,99.90
2017-11-25T03:11:30.753Z,99.90
2017-11-25T03:13:58.467Z,99.90
2017-11-25T03:16:26.746Z,99.90
2017-11-25T03:18:56.065Z,99.90
2017-11-25T03:21:23.770Z,99.90
2017-11-25T03:23:52.199Z,99.90
2017-11-25T03:26:20.659Z,99.90
2017-11-25T03:28:48.461Z,99.90
2017-11-25T03:31:16.134Z,99.90
2017-11-25T03:33:43.864Z,99.90
2017-11-25T03:36:11.838Z,99.90
2017-11-25T03:38:39.584Z,99.90
2017-11-25T03:41:07.299Z,99.90
2017-11-25T03:43:35.060Z,99.90
2017-11-25T03:46:02.755Z,99.90
2017-11-25T03:48:30.411Z,99.90
2017-11-25T03:50:58.103Z,99.90
2017-11-25T03:53:26.588Z,99.90
2017-11-25T03:55:54.300Z,99.90
2017-11-25T03:58:21.985Z,99.90
2017-11-25T04:00:49.675Z,99.90
2017-11-25T04:03:17.306Z,99.90
2017-11-25T04:05:46.652Z,99.90
2017-11-25T04:08:15.149Z,99.90
2017-11-25T04:10:42.772Z,99.90
2017-11-25T04:13:10.447Z,99.90
2017-11-25T04:15:38.163Z,99.90
2017-11-25T04:18:05.911Z,99.90
2017-11-25T04:20:33.628Z,99.90
2017-11-25T04:23:01.314Z,99.90
2017-11-25T04:25:29.383Z,99.90
2017-11-25T04:27:57.043Z,99.90
2017-11-25T04:30:24.681Z,99.90
2017-11-25T04:32:52.373Z,99.90
2017-11-25T04:35:20.050Z,99.90
2017-11-25T04:37:47.718Z,99.90
2017-11-25T04:40:15.469Z,99.90
2017-11-25T04:42:43.102Z,99.90
2017-11-25T04:45:11.653Z,99.90
2017-11-25T04:47:39.300Z,99.90
2017-11-25T04:50:06.948Z,99.90
2017-11-25T04:52:34.622Z,99.90
2017-11-25T04:55:03.089Z,99.90
2017-11-25T04:57:30.792Z,99.90
2017-11-25T04:59:58.663Z,99.90
2017-11-25T05:02:26.340Z,99.90
2017-11-25T05:04:53.991Z,99.90
2017-11-25T05:07:21.630Z,99.90
2017-11-25T05:09:50.044Z,99.90
2017-11-25T05:12:17.730Z,99.90
2017-11-25T05:14:45.400Z,99.90
2017-11-25T05:17:13.154Z,99.90
2017-11-25T05:19:40.816Z,99.90
2017-11-25T05:22:08.585Z,99.90
2017-11-25T05:24:36.948Z,99.90
2017-11-25T05:27:04.725Z,99.90
2017-11-25T05:29:32.417Z,99.90
2017-11-25T05:32:00.074Z,99.90
2017-11-25T05:34:27.801Z,99.90
2017-11-25T05:36:55.586Z,99.90
2017-11-25T05:39:23.262Z,99.90
2017-11-25T05:41:50.989Z,99.90
2017-11-25T05:44:18.624Z,99.90
2017-11-25T05:46:46.275Z,99.90
2017-11-25T05:49:14.802Z,99.90
2017-11-25T05:51:42.513Z,99.90
2017-11-25T05:54:10.954Z,99.90
2017-11-25T05:56:39.395Z,99.90
2017-11-25T05:59:07.128Z,99.90
2017-11-25T06:01:34.810Z,99.90
2017-11-25T06:04:03.210Z,99.90
2017-11-25T06:06:30.879Z,99.90
2017-11-25T06:08:58.542Z,99.60
2017-11-25T06:11:26.189Z,99.90
2017-11-25T06:13:53.891Z,99.90
2017-11-25T06:16:21.578Z,99.90
2017-11-25T06:18:50.856Z,99.90
2017-11-25T06:21:18.530Z,99.90
2017-11-25T06:23:46.193Z,99.90
2017-11-25T06:26:13.870Z,99.90
2017-11-25T06:28:41.529Z,99.90
2017-11-25T06:31:09.174Z,99.30
2017-11-25T06:33:36.853Z,99.30
2017-11-25T06:36:04.503Z,98.40
2017-11-25T06:38:32.201Z,99.00
2017-11-25T06:40:59.921Z,99.20
2017-11-25T06:43:27.524Z,98.80
2017-11-25T06:45:55.224Z,98.60
2017-11-25T06:48:22.853Z,98.60
2017-11-25T06:50:50.765Z,98.20
2017-11-25T06:53:18.433Z,98.10
2017-11-25T06:55:46.909Z,98.10
2017-11-25T06:58:14.548Z,97.70
2017-11-25T07:00:42.282Z,97.60
2017-11-25T07:03:09.946Z,97.40
2017-11-25T07:05:38.345Z,97.10
2017-11-25T07:08:06.024Z,97.10
2017-11-25T07:10:33.705Z,97.10
2017-11-25T07:13:01.327Z,96.50
2017-11-25T07:15:28.957Z,96.70
2017-11-25T07:17:56.636Z,96.40
2017-11-25T07:20:25.099Z,96.30
2017-11-25T07:22:53.593Z,96.10
2017-11-25T07:25:21.981Z,95.70
2017-11-25T07:27:49.710Z,95.70
2017-11-25T07:30:17.328Z,96.00
2017-11-25T07:32:44.987Z,95.70
2017-11-25T07:35:12.640Z,96.00
2017-11-25T07:37:40.567Z,95.60
2017-11-25T07:40:08.174Z,95.30
2017-11-25T07:42:35.873Z,95.20
2017-11-25T07:45:03.561Z,95.50
2017-11-25T07:47:31.613Z,95.10
2017-11-25T07:49:59.354Z,95.60
2017-11-25T07:52:27.121Z,95.80
2017-11-25T07:54:55.536Z,95.70
2017-11-25T07:57:24.775Z,95.60
2017-11-25T07:59:52.442Z,95.60
2017-11-25T08:02:20.044Z,95.70
2017-11-25T08:04:47.740Z,95.90
2017-11-25T08:07:15.399Z,95.90
2017-11-25T08:09:43.061Z,96.40
2017-11-25T08:12:11.458Z,97.20
2017-11-25T08:14:39.093Z,97.20
2017-11-25T08:17:07.446Z,97.60
2017-11-25T08:19:35.054Z,97.60
2017-11-25T08:22:02.719Z,97.30
2017-11-25T08:24:30.302Z,97.30
2017-11-25T08:26:58.214Z,97.20
2017-11-25T08:29:25.802Z,97.70
2017-11-25T08:31:53.410Z,98.20
2017-11-25T08:34:21.077Z,98.10
2017-11-25T08:36:49.430Z,98.30
2017-11-25T08:39:17.091Z,98.30
2017-11-25T08:41:44.708Z,98.60
2017-11-25T08:44:13.157Z,98.70
2017-11-25T08:46:40.761Z,98.60
2017-11-25T08:49:09.122Z,98.10
2017-11-25T08:51:37.501Z,98.10
2017-11-25T08:54:05.839Z,97.90
2017-11-25T08:56:33.478Z,97.90
2017-11-25T08:59:01.101Z,98.10
2017-11-25T09:01:30.047Z,98.30
2017-11-25T09:03:57.674Z,98.30
2017-11-25T09:06:25.310Z,98.60
2017-11-25T09:08:53.002Z,99.00
2017-11-25T09:11:20.682Z,99.30
2017-11-25T09:13:48.260Z,99.60
2017-11-25T09:16:15.900Z,99.40
2017-11-25T09:18:43.581Z,99.40
2017-11-25T09:21:11.191Z,99.50
2017-11-25T09:23:39.545Z,99.80
2017-11-25T09:26:07.164Z,99.80
2017-11-25T09:28:34.766Z,99.20
2017-11-25T09:31:02.377Z,99.30
2017-11-25T09:33:29.981Z,99.50
2017-11-25T09:35:57.678Z,99.40
2017-11-25T09:38:25.329Z,99.40
2017-11-25T09:40:53.014Z,99.70
2017-11-25T09:43:20.639Z,99.70
2017-11-25T09:45:48.286Z,99.50
2017-11-25T09:48:15.904Z,99.20
2017-11-25T09:50:43.507Z,98.90
2017-11-25T09:53:11.181Z,98.90
2017-11-25T09:55:38.804Z,98.40
2017-11-25T09:58:06.443Z,98.60
2017-11-25T10:00:34.120Z,98.70
2017-11-25T10:03:01.768Z,98.00
2017-11-25T10:05:29.393Z,97.30
2017-11-25T10:07:57.014Z,96.80
2017-11-25T10:10:24.593Z,95.40
2017-11-25T10:12:52.188Z,96.20
2017-11-25T10:15:19.809Z,96.20
2017-11-25T10:17:47.450Z,96.20
2017-11-25T10:20:15.011Z,96.80
2017-11-25T10:22:42.609Z,96.60
2017-11-25T10:25:11.554Z,96.60
2017-11-25T10:27:39.117Z,96.60
2017-11-25T10:30:06.769Z,95.90
2017-11-25T10:32:34.411Z,96.00
2017-11-25T10:35:03.259Z,96.10
2017-11-25T10:37:31.139Z,96.10
2017-11-25T10:39:58.815Z,95.70
2017-11-25T10:42:26.609Z,96.00
2017-11-25T10:44:55.583Z,95.20
2017-11-25T10:47:23.188Z,94.90
2017-11-25T10:49:50.859Z,94.90
2017-11-25T10:52:18.512Z,95.20
2017-11-25T10:54:46.901Z,95.20
2017-11-25T10:57:14.531Z,95.20
2017-11-25T10:59:42.924Z,94.50
2017-11-25T11:02:11.319Z,93.90
2017-11-25T11:04:38.907Z,93.90
2017-11-25T11:07:06.509Z,93.70
2017-11-25T11:09:34.117Z,93.00
2017-11-25T11:12:02.519Z,93.30
2017-11-25T11:14:30.123Z,93.20
2017-11-25T11:16:57.741Z,91.70
2017-11-25T11:19:26.149Z,92.10
2017-11-25T11:21:53.700Z,92.40
2017-11-25T11:24:21.289Z,93.00
2017-11-25T11:26:49.665Z,93.10
2017-11-25T11:29:18.950Z,92.60
2017-11-25T11:31:47.343Z,92.70
2017-11-25T11:34:15.662Z,91.90
2017-11-25T11:36:43.239Z,91.90
2017-11-25T11:39:10.907Z,92.40
2017-11-25T11:41:38.504Z,92.10
2017-11-25T11:44:06.940Z,92.40
2017-11-25T11:46:34.518Z,92.20
2017-11-25T11:49:02.242Z,92.20
2017-11-25T11:51:30.586Z,92.00
2017-11-25T11:53:58.971Z,93.10
2017-11-25T11:56:27.315Z,93.10
2017-11-25T11:58:55.649Z,93.00
2017-11-25T12:01:23.368Z,93.10
2017-11-25T12:03:51.746Z,93.60
2017-11-25T12:06:20.155Z,92.30
2017-11-25T12:08:47.806Z,92.20
2017-11-25T12:11:16.265Z,92.20
2017-11-25T12:13:44.698Z,92.80
2017-11-25T12:16:12.355Z,92.80
2017-11-25T12:18:40.995Z,92.90
2017-11-25T12:21:09.346Z,92.80
2017-11-25T12:23:36.990Z,92.90
2017-11-25T12:26:04.638Z,93.20
2017-11-25T12:28:32.321Z,93.10
2017-11-25T12:31:00.737Z,93.20
2017-11-25T12:33:28.353Z,93.20
2017-11-25T12:35:55.979Z,92.40
2017-11-25T12:38:23.598Z,92.10
2017-11-25T12:40:52.751Z,92.50
2017-11-25T12:43:20.339Z,92.50
2017-11-25T12:45:47.965Z,92.60
2017-11-25T12:48:15.615Z,92.00
2017-11-25T12:50:43.235Z,92.50
2017-11-25T12:53:10.861Z,92.60
2017-11-25T12:55:38.463Z,92.70
2017-11-25T12:58:07.703Z,93.30
2017-11-25T13:00:35.398Z,93.20
2017-11-25T13:03:03.208Z,93.30
2017-11-25T13:05:30.845Z,92.70
2017-11-25T13:07:58.768Z,92.70
2017-11-25T13:10:26.362Z,92.30
2017-11-25T13:12:54.456Z,92.40
2017-11-25T13:15:22.211Z,92.20
2017-11-25T13:17:49.987Z,92.80
2017-11-25T13:20:17.551Z,92.70
2017-11-25T13:22:45.179Z,92.90
2017-11-25T13:25:12.824Z,93.20
2017-11-25T13:27:40.437Z,92.80
2017-11-25T13:30:08.846Z,93.00
2017-11-25T13:32:36.422Z,93.00
2017-11-25T13:35:04.083Z,93.10
2017-11-25T13:37:31.679Z,93.00
2017-11-25T13:39:59.264Z,93.00
2017-11-25T13:42:27.616Z,93.80
2017-11-25T13:44:55.801Z,93.70
2017-11-25T13:47:23.412Z,93.60
2017-11-25T13:49:50.964Z,93.80
2017-11-25T13:52:19.477Z,93.90
2017-11-25T13:54:47.090Z,93.80
2017-11-25T13:57:15.470Z,93.70
2017-11-25T13:59:43.133Z,93.70
2017-11-25T14:02:11.672Z,94.30
2017-11-25T14:04:39.312Z,94.30
2017-11-25T14:07:07.154Z,93.80
2017-11-25T14:09:35.506Z,93.90
2017-11-25T14:12:03.146Z,94.00
2017-11-25T14:14:30.796Z,94.10
2017-11-25T14:16:59.302Z,94.70
2017-11-25T14:19:28.290Z,94.30
2017-11-25T14:21:55.931Z,94.30
2017-11-25T14:24:24.566Z,94.60
2017-11-25T14:26:53.022Z,94.60
2017-11-25T14:29:20.723Z,94.60
2017-11-25T14:31:49.139Z,94.80
2017-11-25T14:34:16.891Z,94.80
2017-11-25T14:36:44.756Z,95.00
2017-11-25T14:39:12.606Z,95.00
2017-11-25T14:41:40.289Z,94.90
2017-11-25T14:44:07.953Z,95.20
2017-11-25T14:46:35.562Z,94.80
2017-11-25T14:49:03.239Z,95.40
2017-11-25T14:51:30.947Z,95.10
2017-11-25T14:53:58.579Z,95.40
2017-11-25T14:56:26.240Z,95.20
2017-11-25T14:58:53.926Z,95.40
2017-11-25T15:01:22.417Z,95.70
2017-11-25T15:03:50.074Z,96.00
2017-11-25T15:06:17.705Z,96.20
2017-11-25T15:08:45.358Z,96.40
2017-11-25T15:11:13.089Z,96.60
2017-11-25T15:13:40.722Z,97.40
2017-11-25T15:16:08.302Z,97.00
2017-11-25T15:18:35.994Z,97.00
2017-11-25T15:21:03.601Z,97.20
2017-11-25T15:23:31.243Z,97.40
2017-11-25T15:25:58.885Z,97.10
2017-11-25T15:28:26.567Z,97.10
2017-11-25T15:30:54.262Z,97.10
2017-11-25T15:33:22.097Z,97.20
2017-11-25T15:35:49.782Z,97.20
2017-11-25T15:38:17.465Z,97.40
2017-11-25T15:40:45.211Z,97.80
2017-11-25T15:43:12.857Z,97.20
2017-11-25T15:45:40.590Z,97.50
2017-11-25T15:48:08.225Z,97.60
2017-11-25T15:50:36.629Z,98.10
2017-11-25T15:53:04.346Z,98.10
2017-11-25T15:55:32.117Z,97.90
2017-11-25T15:57:59.759Z,97.80
2017-11-25T16:00:27.377Z,98.30
2017-11-25T16:02:55.015Z,98.30
2017-11-25T16:05:23.478Z,98.20
2017-11-25T16:07:51.105Z,98.20
2017-11-25T16:10:18.865Z,98.40
2017-11-25T16:12:46.511Z,98.30
2017-11-25T16:15:14.130Z,98.60
2017-11-25T16:17:42.700Z,99.00
2017-11-25T16:20:10.378Z,98.90
2017-11-25T16:22:38.022Z,99.00
2017-11-25T16:25:05.803Z,99.00
2017-11-25T16:27:33.561Z,99.10
2017-11-25T16:30:01.231Z,99.20
2017-11-25T16:32:29.808Z,99.70
2017-11-25T16:34:57.491Z,99.60
2017-11-25T16:37:25.180Z,99.80
2017-11-25T16:39:52.797Z,99.90
2017-11-25T16:42:20.493Z,99.90
2017-11-25T16:44:48.109Z,99.90
2017-11-25T16:47:15.768Z,99.90
2017-11-25T16:49:43.340Z,99.90
2017-11-25T16:52:10.988Z,99.90
2017-11-25T16:54:38.645Z,99.90
2017-11-25T16:57:06.266Z,99.70
2017-11-25T16:59:33.895Z,99.20
2017-11-25T17:02:01.509Z,99.10
2017-11-25T17:04:29.093Z,98.90
2017-11-25T17:06:56.761Z,98.80
2017-11-25T17:09:24.821Z,98.90
2017-11-25T17:11:52.409Z,98.50
2017-11-25T17:14:20.166Z,98.20
2017-11-25T17:16:48.182Z,98.40
2017-11-25T17:19:15.828Z,98.60
2017-11-25T17:21:43.542Z,98.60
2017-11-25T17:24:12.061Z,97.80
2017-11-25T17:26:39.894Z,98.10
2017-11-25T17:29:07.536Z,98.60
2017-11-25T17:31:35.999Z,98.60
2017-11-25T17:34:03.868Z,98.10
2017-11-25T17:36:32.297Z,98.20
2017-11-25T17:38:59.962Z,98.20
2017-11-25T17:41:27.603Z,98.30
2017-11-25T17:43:55.325Z,98.30
2017-11-25T17:46:23.017Z,98.50
2017-11-25T17:48:50.682Z,98.90
2017-11-25T17:51:18.397Z,98.70
2017-11-25T17:53:46.237Z,99.10
2017-11-25T17:56:13.883Z,99.20
2017-11-25T17:58:41.556Z,99.30
2017-11-25T18:01:09.282Z,99.40
2017-11-25T18:03:37.749Z,99.80
2017-11-25T18:06:05.371Z,99.70
2017-11-25T18:08:32.974Z,99.90
2017-11-25T18:11:00.716Z,99.90
2017-11-25T18:13:28.412Z,99.90
2017-11-25T18:15:56.070Z,99.90
2017-11-25T18:18:23.760Z,99.90
2017-11-25T18:20:51.503Z,99.90
2017-11-25T18:23:19.297Z,99.90
2017-11-25T18:25:47.014Z,99.90
2017-11-25T18:28:16.405Z,99.90
2017-11-25T18:30:44.144Z,99.90
2017-11-25T18:33:12.650Z,99.90
2017-11-25T18:35:41.111Z,99.90
2017-11-25T18:38:09.667Z,99.90
2017-11-25T18:40:37.274Z,99.90
2017-11-25T18:43:04.911Z,99.90
2017-11-25T18:45:33.422Z,99.90
2017-11-25T18:48:01.143Z,99.90
2017-11-25T18:50:28.931Z,99.90
2017-11-25T18:52:56.762Z,99.90
2017-11-25T18:55:24.363Z,99.90
2017-11-25T18:57:51.973Z,99.90
2017-11-25T19:00:19.660Z,99.90
2017-11-25T19:02:47.259Z,99.90
2017-11-25T19:05:14.854Z,99.90
2017-11-25T19:07:42.677Z,99.90
2017-11-25T19:10:10.276Z,99.90
2017-11-25T19:12:38.018Z,99.90
2017-11-25T19:15:05.901Z,99.90
2017-11-25T19:17:33.660Z,99.90
2017-11-25T19:20:01.662Z,99.90
2017-11-25T19:22:29.402Z,99.90
2017-11-25T19:24:57.028Z,99.90
2017-11-25T19:27:24.728Z,99.90
2017-11-25T19:29:52.389Z,99.90
2017-11-25T19:32:20.175Z,99.90
2017-11-25T19:34:48.595Z,99.90
2017-11-25T19:37:16.268Z,99.90
2017-11-25T19:39:44.020Z,99.90
2017-11-25T19:42:11.762Z,99.90
2017-11-25T19:44:39.405Z,99.90
2017-11-25T19:47:07.134Z,99.90
2017-11-25T19:49:34.957Z,99.90
2017-11-25T19:52:03.392Z,99.90
2017-11-25T19:54:31.045Z,99.90
2017-11-25T19:56:58.872Z,99.90
2017-11-25T19:59:26.573Z,99.90
2017-11-25T20:01:54.231Z,99.90
2017-11-25T20:04:21.914Z,99.90
2017-11-25T20:06:50.331Z,99.90
2017-11-25T20:09:17.971Z,99.90
2017-11-25T20:11:45.677Z,99.90
2017-11-25T20:14:13.703Z,99.90
2017-11-25T20:16:41.350Z,99.90
2017-11-25T20:19:09.036Z,99.90
2017-11-25T20:21:36.795Z,99.90
2017-11-25T20:24:04.463Z,99.90
2017-11-25T20:26:32.188Z,99.90
2017-11-25T20:28:59.806Z,99.90
2017-11-25T20:31:27.406Z,99.90
2017-11-25T20:33:55.190Z,99.90
2017-11-25T20:36:22.898Z,99.90
2017-11-25T20:38:50.555Z,99.90
2017-11-25T20:41:18.517Z,99.90
2017-11-25T20:43:46.086Z,99.90
2017-11-25T20:46:13.661Z,99.90
2017-11-25T20:48:42.081Z,99.90
2017-11-25T20:51:09.676Z,99.90
2017-11-25T20:53:37.313Z,99.90
2017-11-25T20:56:04.957Z,99.90
2017-11-25T20:58:32.586Z,99.90
2017-11-25T21:01:00.178Z,99.90
2017-11-25T21:03:27.788Z,99.90
2017-11-25T21:05:56.232Z,99.90
2017-11-25T21:08:23.890Z,99.90
2017-11-25T21:10:51.606Z,99.90
2017-11-25T21:13:20.760Z,99.90
2017-11-25T21:15:48.420Z,99.90
2017-11-25T21:18:16.092Z,99.90
2017-11-25T21:20:43.733Z,99.90
2017-11-25T21:23:11.342Z,99.90
2017-11-25T21:25:39.910Z,99.90
2017-11-25T21:28:07.591Z,99.90
2017-11-25T21:30:35.993Z,99.90
2017-11-25T21:33:03.658Z,99.90
2017-11-25T21:35:31.305Z,99.90
2017-11-25T21:37:58.932Z,99.90
2017-11-25T21:40:26.574Z,99.90
2017-11-25T21:42:54.270Z,99.90
2017-11-25T21:45:22.625Z,99.90
2017-11-25T21:47:50.403Z,99.90
2017-11-25T21:50:18.048Z,99.90
2017-11-25T21:52:45.673Z,99.90
2017-11-25T21:55:13.233Z,99.90
2017-11-25T21:57:41.008Z,99.90
2017-11-25T22:00:08.715Z,99.90
2017-11-25T22:02:36.330Z,99.90
2017-11-25T22:05:03.942Z,99.90
2017-11-25T22:07:31.542Z,99.90
2017-11-25T22:09:59.257Z,99.90
2017-11-25T22:12:26.905Z,99.90
2017-11-25T22:14:54.530Z,99.90
2017-11-25T22:17:22.206Z,99.90
2017-11-25T22:19:50.273Z,99.90
2017-11-25T22:22:18.082Z,99.90
2017-11-25T22:24:45.676Z,99.90
2017-11-25T22:27:13.367Z,99.90
2017-11-25T22:29:40.972Z,99.90
2017-11-25T22:32:08.605Z,99.90
2017-11-25T22:34:36.305Z,99.90
2017-11-25T22:37:03.964Z,99.90
2017-11-25T22:39:31.578Z,99.90
2017-11-25T22:41:59.953Z,99.90
2017-11-25T22:44:28.367Z,99.90
2017-11-25T22:46:56.060Z,99.90
2017-11-25T22:49:23.680Z,99.90
2017-11-25T22:51:51.330Z,99.90
2017-11-25T22:54:19.717Z,99.90
2017-11-25T22:56:47.302Z,99.90
2017-11-25T22:59:14.913Z,99.90
2017-11-25T23:01:43.882Z,99.90
2017-11-25T23:04:11.554Z,99.90
2017-11-25T23:06:39.227Z,99.90
2017-11-25T23:09:07.638Z,99.90
2017-11-25T23:11:35.270Z,99.90
2017-11-25T23:14:03.702Z,99.90
2017-11-25T23:16:31.342Z,99.90
2017-11-25T23:18:59.045Z,99.90
2017-11-25T23:21:26.698Z,99.90
2017-11-25T23:23:55.253Z,99.90
2017-11-25T23:26:22.870Z,99.90
2017-11-25T23:28:50.573Z,99.90
2017-11-25T23:31:18.291Z,99.90
2017-11-25T23:33:45.948Z,99.90
2017-11-25T23:36:13.568Z,99.90
2017-11-25T23:38:41.182Z,99.90
2017-11-25T23:41:09.071Z,99.90
2017-11-25T23:43:36.804Z,99.90
2017-11-25T23:46:04.534Z,99.90
2017-11-25T23:48:32.232Z,99.90
2017-11-25T23:51:00.783Z,99.90
2017-11-25T23:53:29.326Z,99.90
2017-11-25T23:55:57.887Z,99.90
2017-11-25T23:58:25.893Z,99.90
